createdAt,value
2023-05-05T00:01:11.721Z,26.10
2023-05-05T00:06:18.626Z,26.10
2023-05-05T00:11:26.099Z,24.80
2023-05-05T00:16:33.195Z,25.10
2023-05-05T00:21:40.210Z,27.70
2023-05-05T00:26:48.272Z,24.80
2023-05-05T00:31:55.479Z,24.10
2023-05-05T00:37:02.580Z,28.20
2023-05-05T00:42:09.812Z,26.20
2023-05-05T00:47:17.417Z,29.00
2023-05-05T00:52:24.507Z,24.50
2023-05-05T00:57:32.580Z,25.10
2023-05-05T01:02:39.873Z,22.50
2023-05-05T01:08:02.902Z,31.00
2023-05-05T01:13:22.484Z,25.00
2023-05-05T01:18:37.672Z,22.80
2023-05-05T01:24:07.835Z,25.40
2023-05-05T01:29:38.716Z,28.20
2023-05-05T01:34:54.830Z,23.90
2023-05-05T01:40:06.412Z,24.30
2023-05-05T01:50:21.955Z,23.20
2023-05-05T01:55:31.056Z,29.80
2023-05-05T02:00:39.307Z,25.50
2023-05-05T02:05:48.746Z,24.70
2023-05-05T02:10:57.215Z,28.70
2023-05-05T02:16:08.498Z,31.20
2023-05-05T02:21:18.092Z,23.20
2023-05-05T02:26:26.217Z,29.00
2023-05-05T02:31:35.807Z,24.90
2023-05-05T02:36:45.686Z,23.30
2023-05-05T02:41:55.361Z,26.10
2023-05-05T02:47:07.919Z,26.60
2023-05-05T02:52:15.502Z,27.00
2023-05-05T02:57:33.043Z,29.10
2023-05-05T03:02:50.075Z,23.20
2023-05-05T03:08:04.494Z,30.80
2023-05-05T03:13:13.431Z,27.10
2023-05-05T03:18:26.362Z,25.50
2023-05-05T03:23:38.991Z,27.50
2023-05-05T03:28:49.821Z,27.00
2023-05-05T03:34:00.937Z,27.20
2023-05-05T03:39:13.154Z,24.70
2023-05-05T03:44:20.114Z,27.80
2023-05-05T03:49:27.143Z,27.60
2023-05-05T03:54:34.576Z,25.90
2023-05-05T03:59:41.756Z,27.20
2023-05-05T04:04:49.654Z,26.10
2023-05-05T04:09:56.670Z,28.90
2023-05-05T04:15:04.200Z,29.60
2023-05-05T04:20:12.850Z,33.20
2023-05-05T04:25:20.549Z,27.80
2023-05-05T04:30:28.753Z,31.70
2023-05-05T04:35:36.114Z,34.40
2023-05-05T04:40:43.368Z,22.80
2023-05-05T04:45:56.472Z,27.00
2023-05-05T04:51:08.426Z,26.30
2023-05-05T04:56:16.308Z,28.00
2023-05-05T05:01:24.028Z,32.70
2023-05-05T05:06:46.214Z,34.40
2023-05-05T05:11:53.777Z,31.60
2023-05-05T05:17:00.982Z,24.70
2023-05-05T05:22:07.986Z,22.90
2023-05-05T05:27:17.737Z,24.10
2023-05-05T05:32:25.650Z,29.90
2023-05-05T05:37:33.414Z,25.90
2023-05-05T05:42:41.997Z,26.40
2023-05-05T05:47:49.381Z,25.60
2023-05-05T05:52:56.717Z,25.40
2023-05-05T05:58:04.569Z,24.30
2023-05-05T06:03:12.164Z,24.10
2023-05-05T06:08:19.835Z,21.50
2023-05-05T06:13:30.729Z,21.90
2023-05-05T06:18:38.273Z,26.50
2023-05-05T06:23:45.256Z,23.20
2023-05-05T06:28:52.357Z,21.90
2023-05-05T06:33:59.384Z,22.50
2023-05-05T06:39:06.414Z,23.20
2023-05-05T06:44:13.573Z,18.00
2023-05-05T06:49:20.419Z,23.50
2023-05-05T06:54:27.413Z,26.80
2023-05-05T06:59:34.307Z,22.50
2023-05-05T07:04:41.556Z,17.60
2023-05-05T07:09:48.601Z,24.10
2023-05-05T07:14:56.513Z,20.20
2023-05-05T07:20:03.842Z,20.20
2023-05-05T07:25:12.042Z,17.80
2023-05-05T07:30:19.639Z,18.20
2023-05-05T07:35:27.858Z,18.50
2023-05-05T07:40:34.864Z,16.50
2023-05-05T07:45:41.922Z,19.70
2023-05-05T07:50:49.126Z,14.70
2023-05-05T07:55:56.154Z,13.30
2023-05-05T08:01:04.821Z,15.10
2023-05-05T08:06:12.828Z,14.30
2023-05-05T08:11:20.427Z,15.00
2023-05-05T08:16:27.909Z,14.90
2023-05-05T08:21:34.878Z,14.10
2023-05-05T08:26:41.933Z,9.80
2023-05-05T08:31:49.021Z,14.00
2023-05-05T08:36:56.654Z,15.10
2023-05-05T08:42:04.084Z,13.00
2023-05-05T08:47:16.305Z,9.40
2023-05-05T08:52:29.911Z,10.20
2023-05-05T08:57:42.597Z,7.40
2023-05-05T09:02:50.484Z,8.30
2023-05-05T09:07:57.916Z,13.70
2023-05-05T09:13:06.989Z,10.50
2023-05-05T09:18:14.574Z,12.00
2023-05-05T09:23:22.425Z,7.50
2023-05-05T09:28:29.439Z,7.70
2023-05-05T09:33:36.432Z,10.60
2023-05-05T09:38:43.447Z,11.20
2023-05-05T09:43:54.176Z,7.50
2023-05-05T09:49:15.566Z,8.30
2023-05-05T09:54:27.487Z,8.30
2023-05-05T09:59:34.849Z,6.30
2023-05-05T10:04:42.169Z,6.20
2023-05-05T10:09:49.248Z,14.20
2023-05-05T10:14:58.894Z,6.90
2023-05-05T10:20:08.753Z,5.90
2023-05-05T10:25:22.569Z,5.00
2023-05-05T10:30:33.917Z,9.40
2023-05-05T10:35:45.313Z,4.70
2023-05-05T10:40:53.403Z,7.50
2023-05-05T10:46:01.120Z,6.30
2023-05-05T10:51:35.205Z,6.70
2023-05-05T10:56:47.027Z,9.80
2023-05-05T11:01:54.110Z,6.70
2023-05-05T11:07:26.080Z,6.30
2023-05-05T11:12:36.047Z,5.20
2023-05-05T11:17:51.296Z,4.20
2023-05-05T11:23:24.945Z,5.70
2023-05-05T11:28:33.192Z,6.90
2023-05-05T11:33:41.035Z,4.40
2023-05-05T11:38:57.739Z,5.70
2023-05-05T11:44:15.449Z,5.20
2023-05-05T11:49:31.370Z,5.90
2023-05-05T11:54:40.559Z,3.40
2023-05-05T11:59:56.727Z,5.60
2023-05-05T12:05:03.973Z,3.30
2023-05-05T12:10:12.339Z,4.10
2023-05-05T12:15:28.589Z,4.10
2023-05-05T12:20:36.808Z,4.10
2023-05-05T12:25:43.737Z,4.00
2023-05-05T12:30:59.941Z,5.70
2023-05-05T12:36:08.351Z,6.30
2023-05-05T12:46:26.547Z,6.20
2023-05-05T12:51:34.769Z,3.80
2023-05-05T13:01:55.539Z,4.80
2023-05-05T13:07:13.677Z,2.90
2023-05-05T13:12:23.204Z,4.60
2023-05-05T13:17:32.772Z,3.70
2023-05-05T13:22:41.714Z,3.60
2023-05-05T13:27:48.789Z,3.20
2023-05-05T13:32:55.847Z,3.60
2023-05-05T13:38:03.096Z,3.50
2023-05-05T13:48:15.594Z,8.10
2023-05-05T13:53:22.640Z,3.20
2023-05-05T13:58:29.721Z,5.50
2023-05-05T14:08:42.110Z,9.90
2023-05-05T14:13:49.789Z,4.00
2023-05-05T14:18:59.380Z,6.00
2023-05-05T14:29:44.556Z,3.70
2023-05-05T14:34:51.421Z,3.00
2023-05-05T14:39:58.548Z,6.80
2023-05-05T14:45:06.726Z,9.70
2023-05-05T14:50:14.283Z,4.30
2023-05-05T14:55:21.420Z,2.50
2023-05-05T15:00:28.570Z,3.40
2023-05-05T15:05:35.731Z,5.20
2023-05-05T15:10:42.648Z,6.20
2023-05-05T15:15:50.181Z,8.30
2023-05-05T15:20:57.209Z,6.20
2023-05-05T15:26:04.671Z,2.70
2023-05-05T15:36:22.438Z,3.00
2023-05-05T15:41:30.349Z,4.50
2023-05-05T15:46:37.570Z,3.00
2023-05-05T15:51:44.530Z,7.00
2023-05-05T15:56:51.561Z,12.50
2023-05-05T16:01:58.633Z,3.50
2023-05-05T16:07:05.615Z,7.10
2023-05-05T16:12:12.724Z,6.20
2023-05-05T16:17:21.640Z,3.70
2023-05-05T16:22:29.149Z,4.80
2023-05-05T16:27:38.918Z,7.30
2023-05-05T16:32:47.484Z,5.10
2023-05-05T16:37:54.571Z,7.60
2023-05-05T16:43:01.593Z,6.20
2023-05-05T16:48:09.441Z,5.70
2023-05-05T16:53:16.427Z,5.90
2023-05-05T16:58:23.935Z,3.00
2023-05-05T17:03:30.958Z,5.70
2023-05-05T17:08:37.978Z,6.30
2023-05-05T17:13:44.912Z,8.10
2023-05-05T17:18:51.811Z,15.10
2023-05-05T17:23:58.911Z,7.50
2023-05-05T17:29:05.907Z,4.70
2023-05-05T17:34:12.805Z,10.00
2023-05-05T17:39:19.784Z,5.90
2023-05-05T17:44:27.009Z,7.90
2023-05-05T17:49:34.414Z,11.10
2023-05-05T17:54:42.682Z,7.90
2023-05-05T17:59:50.429Z,15.60
2023-05-05T18:04:57.375Z,7.50
2023-05-05T18:10:04.482Z,9.50
2023-05-05T18:15:13.136Z,12.40
2023-05-05T18:20:20.485Z,22.10
2023-05-05T18:25:27.602Z,12.00
2023-05-05T18:30:35.777Z,17.40
2023-05-05T18:35:42.838Z,12.20
2023-05-05T18:40:50.306Z,13.50
2023-05-05T18:45:57.212Z,12.50
2023-05-05T18:51:07.613Z,16.40
2023-05-05T18:56:14.656Z,11.40
2023-05-05T19:01:21.652Z,11.70
2023-05-05T19:06:28.720Z,13.30
2023-05-05T19:11:35.501Z,18.50
2023-05-05T19:16:42.553Z,16.70
2023-05-05T19:21:49.444Z,17.50
2023-05-05T19:26:56.393Z,12.70
2023-05-05T19:32:03.374Z,9.70
2023-05-05T19:37:10.475Z,14.40
2023-05-05T19:42:17.545Z,14.10
2023-05-05T19:47:24.406Z,12.20
2023-05-05T19:52:31.480Z,10.20
2023-05-05T19:57:38.864Z,12.40
2023-05-05T20:02:45.885Z,18.40
2023-05-05T20:07:53.243Z,12.90
2023-05-05T20:13:03.580Z,13.60
2023-05-05T20:18:11.806Z,13.30
2023-05-05T20:23:18.655Z,14.20
2023-05-05T20:28:25.906Z,12.60
2023-05-05T20:33:33.022Z,15.80
2023-05-05T20:38:40.126Z,11.10
2023-05-05T20:43:47.199Z,15.40
2023-05-05T20:48:54.298Z,16.10
2023-05-05T20:54:01.359Z,11.20
2023-05-05T20:59:08.461Z,12.40
2023-05-05T21:04:15.446Z,13.40
2023-05-05T21:09:22.551Z,13.00
2023-05-05T21:14:30.317Z,10.40
2023-05-05T21:19:37.344Z,14.50
2023-05-05T21:24:44.446Z,16.80
2023-05-05T21:29:52.923Z,12.50
2023-05-05T21:35:05.612Z,13.60
2023-05-05T21:40:16.429Z,16.30
2023-05-05T21:45:23.817Z,16.50
2023-05-05T21:50:31.122Z,18.50
2023-05-05T21:55:38.007Z,15.50
2023-05-05T22:00:45.177Z,16.10
2023-05-05T22:05:52.431Z,20.10
2023-05-05T22:10:59.298Z,16.10
2023-05-05T22:16:07.273Z,14.70
2023-05-05T22:21:14.299Z,13.60
2023-05-05T22:26:21.933Z,14.20
2023-05-05T22:31:29.524Z,13.60
2023-05-05T22:36:36.560Z,13.00
2023-05-05T22:41:43.810Z,11.90
2023-05-05T22:46:51.011Z,15.30
2023-05-05T22:51:58.513Z,16.40
2023-05-05T22:57:05.403Z,13.50
2023-05-05T23:02:12.510Z,13.00
2023-05-05T23:07:19.460Z,16.20
2023-05-05T23:12:26.520Z,15.90
2023-05-05T23:17:33.970Z,14.40
2023-05-05T23:22:41.134Z,13.00
2023-05-05T23:27:48.195Z,14.10
2023-05-05T23:32:57.311Z,20.30
2023-05-05T23:38:05.305Z,16.00
2023-05-05T23:43:12.921Z,12.70
2023-05-05T23:48:19.855Z,16.90
2023-05-05T23:53:26.723Z,12.90
2023-05-05T23:58:33.761Z,16.20
